createdAt,value
2018-10-07T00:00:04.551Z,10.60
2018-10-07T00:02:32.472Z,10.73
2018-10-07T00:05:00.631Z,10.80
2018-10-07T00:07:28.784Z,12.10
2018-10-07T00:09:56.945Z,11.40
2018-10-07T00:12:25.107Z,11.23
2018-10-07T00:14:53.044Z,9.80
2018-10-07T00:17:20.965Z,11.70
2018-10-07T00:19:48.887Z,10.53
2018-10-07T00:22:16.807Z,11.77
2018-10-07T00:24:44.999Z,10.77
2018-10-07T00:27:13.151Z,10.90
2018-10-07T00:29:41.304Z,11.00
2018-10-07T00:32:15.168Z,10.50
2018-10-07T00:34:44.546Z,9.87
2018-10-07T00:37:12.696Z,10.37
2018-10-07T00:39:40.910Z,9.77
2018-10-07T00:42:09.081Z,10.53
2018-10-07T00:44:36.990Z,9.90
2018-10-07T00:47:04.992Z,10.60
2018-10-07T00:49:33.143Z,10.27
2018-10-07T00:52:01.084Z,9.77
2018-10-07T00:54:29.030Z,8.83
2018-10-07T00:56:57.234Z,10.67
2018-10-07T00:59:25.367Z,9.67
2018-10-07T01:01:53.520Z,9.93
2018-10-07T01:04:21.654Z,9.73
2018-10-07T01:06:49.827Z,10.07
2018-10-07T01:09:17.958Z,9.87
2018-10-07T01:11:46.103Z,9.00
2018-10-07T01:14:14.264Z,9.73
2018-10-07T01:16:42.182Z,9.93
2018-10-07T01:19:10.329Z,9.97
2018-10-07T01:21:38.484Z,9.90
2018-10-07T01:24:06.647Z,10.17
2018-10-07T01:26:34.807Z,10.63
2018-10-07T01:29:02.717Z,9.90
2018-10-07T01:31:30.871Z,10.77
2018-10-07T01:33:59.055Z,10.37
2018-10-07T01:36:27.199Z,10.77
2018-10-07T01:38:55.112Z,10.27
2018-10-07T01:41:23.038Z,9.47
2018-10-07T01:43:51.197Z,10.63
2018-10-07T01:46:19.130Z,10.67
2018-10-07T01:48:47.085Z,10.90
2018-10-07T01:51:14.989Z,9.60
2018-10-07T01:53:43.155Z,10.50
2018-10-07T01:56:11.315Z,10.23
2018-10-07T01:58:39.450Z,10.20
2018-10-07T02:01:07.458Z,9.40
2018-10-07T02:03:35.593Z,9.87
2018-10-07T02:06:03.746Z,9.47
2018-10-07T02:08:31.901Z,10.33
2018-10-07T02:10:59.825Z,9.60
2018-10-07T02:13:27.975Z,8.80
2018-10-07T02:15:56.195Z,8.83
2018-10-07T02:18:24.329Z,8.70
2018-10-07T02:20:52.478Z,9.87
2018-10-07T02:23:20.620Z,10.23
2018-10-07T02:25:48.750Z,9.90
2018-10-07T02:28:16.898Z,8.83
2018-10-07T02:30:45.069Z,9.83
2018-10-07T02:33:13.215Z,9.57
2018-10-07T02:35:41.350Z,8.70
2018-10-07T02:38:09.484Z,9.57
2018-10-07T02:40:39.960Z,9.33
2018-10-07T02:43:08.111Z,9.73
2018-10-07T02:45:36.263Z,9.53
2018-10-07T02:48:04.398Z,9.57
2018-10-07T02:50:32.547Z,10.27
2018-10-07T02:53:00.688Z,9.13
2018-10-07T02:55:31.045Z,9.90
2018-10-07T02:58:00.951Z,9.97
2018-10-07T03:00:29.099Z,10.73
2018-10-07T03:02:57.002Z,10.20
2018-10-07T03:05:25.175Z,10.77
2018-10-07T03:07:53.311Z,10.40
2018-10-07T03:10:21.480Z,10.77
2018-10-07T03:12:49.613Z,9.97
2018-10-07T03:15:17.779Z,10.70
2018-10-07T03:17:45.685Z,10.47
2018-10-07T03:20:13.883Z,10.53
2018-10-07T03:22:42.027Z,10.60
2018-10-07T03:25:09.946Z,10.23
2018-10-07T03:27:38.088Z,10.50
2018-10-07T03:30:06.249Z,10.40
2018-10-07T03:32:34.385Z,9.83
2018-10-07T03:35:02.531Z,10.87
2018-10-07T03:37:30.688Z,10.70
2018-10-07T03:39:58.829Z,10.57
2018-10-07T03:42:26.999Z,11.43
2018-10-07T03:44:54.897Z,10.97
2018-10-07T03:47:22.842Z,11.50
2018-10-07T03:49:50.753Z,10.83
2018-10-07T03:52:18.694Z,10.87
2018-10-07T03:54:46.835Z,10.93
2018-10-07T03:57:14.986Z,10.60
2018-10-07T03:59:43.130Z,10.67
2018-10-07T04:02:11.289Z,11.17
2018-10-07T04:04:39.454Z,10.67
2018-10-07T04:07:07.601Z,9.77
2018-10-07T04:09:35.740Z,10.90
2018-10-07T04:12:03.926Z,10.23
2018-10-07T04:14:32.099Z,10.67
2018-10-07T04:17:00.322Z,10.23
2018-10-07T04:19:28.221Z,10.43
2018-10-07T04:21:57.470Z,10.70
2018-10-07T04:24:26.913Z,10.87
2018-10-07T04:26:55.078Z,10.30
2018-10-07T04:29:22.981Z,10.27
2018-10-07T04:31:51.159Z,11.03
2018-10-07T04:34:19.098Z,11.13
2018-10-07T04:36:47.263Z,10.60
2018-10-07T04:39:15.411Z,10.17
2018-10-07T04:41:44.286Z,10.43
2018-10-07T04:44:12.445Z,10.60
2018-10-07T04:46:40.678Z,9.97
2018-10-07T04:49:08.851Z,10.80
2018-10-07T04:51:37.150Z,10.63
2018-10-07T04:54:05.177Z,10.83
2018-10-07T04:56:33.295Z,12.73
2018-10-07T04:59:01.199Z,11.33
2018-10-07T05:01:29.359Z,11.17
2018-10-07T05:03:58.111Z,10.80
2018-10-07T05:06:28.368Z,10.60
2018-10-07T05:08:56.620Z,10.53
2018-10-07T05:11:27.383Z,9.73
2018-10-07T05:13:56.379Z,10.87
2018-10-07T05:16:28.207Z,9.87
2018-10-07T05:18:56.369Z,10.90
2018-10-07T05:21:24.545Z,10.47
2018-10-07T05:23:52.936Z,10.93
2018-10-07T05:26:20.960Z,9.97
2018-10-07T05:28:49.096Z,11.27
2018-10-07T05:31:17.258Z,10.93
2018-10-07T05:33:45.427Z,9.93
2018-10-07T05:36:13.595Z,10.60
2018-10-07T05:38:41.510Z,10.00
2018-10-07T05:41:09.746Z,9.87
2018-10-07T05:43:37.965Z,10.27
2018-10-07T05:46:06.140Z,11.30
2018-10-07T05:48:34.087Z,11.37
2018-10-07T05:51:02.365Z,10.90
2018-10-07T05:53:30.494Z,10.10
2018-10-07T05:55:58.655Z,11.20
2018-10-07T05:58:27.459Z,11.83
2018-10-07T06:00:58.903Z,11.27
2018-10-07T06:03:34.599Z,11.60
2018-10-07T06:06:02.747Z,13.00
2018-10-07T06:08:30.947Z,12.90
2018-10-07T06:10:58.906Z,11.70
2018-10-07T06:13:27.066Z,12.00
2018-10-07T06:15:54.988Z,12.57
2018-10-07T06:18:22.930Z,11.90
2018-10-07T06:20:50.856Z,11.80
2018-10-07T06:23:19.010Z,12.00
2018-10-07T06:25:46.934Z,11.90
2018-10-07T06:28:14.883Z,12.77
2018-10-07T06:30:43.060Z,12.93
2018-10-07T06:33:11.021Z,13.23
2018-10-07T06:35:39.179Z,13.10
2018-10-07T06:38:07.346Z,13.17
2018-10-07T06:40:35.539Z,12.37
2018-10-07T06:43:03.476Z,12.73
2018-10-07T06:45:31.711Z,11.90
2018-10-07T06:47:59.859Z,12.23
2018-10-07T06:50:28.106Z,10.87
2018-10-07T06:52:56.276Z,10.53
2018-10-07T06:55:24.416Z,10.10
2018-10-07T06:57:52.571Z,9.83
2018-10-07T07:00:20.730Z,10.70
2018-10-07T07:02:48.914Z,10.70
2018-10-07T07:05:17.088Z,10.57
2018-10-07T07:07:45.245Z,10.33
2018-10-07T07:10:13.438Z,11.00
2018-10-07T07:12:41.611Z,10.93
2018-10-07T07:15:09.783Z,10.23
2018-10-07T07:17:37.973Z,10.47
2018-10-07T07:20:06.169Z,10.93
2018-10-07T07:22:34.325Z,10.60
2018-10-07T07:25:02.486Z,9.83
2018-10-07T07:27:30.387Z,10.83
2018-10-07T07:29:58.572Z,9.90
2018-10-07T07:32:26.727Z,9.20
2018-10-07T07:34:54.907Z,9.53
2018-10-07T07:37:23.039Z,8.80
2018-10-07T07:39:51.199Z,8.43
2018-10-07T07:42:19.146Z,8.40
2018-10-07T07:44:47.290Z,8.07
2018-10-07T07:47:15.441Z,8.17
2018-10-07T07:49:43.599Z,7.13
2018-10-07T07:52:11.792Z,7.73
2018-10-07T07:54:40.017Z,8.00
2018-10-07T07:57:08.116Z,7.10
2018-10-07T07:59:36.279Z,7.67
2018-10-07T08:02:04.431Z,7.40
2018-10-07T08:04:32.582Z,8.00
2018-10-07T08:07:00.714Z,6.97
2018-10-07T08:09:28.876Z,7.17
2018-10-07T08:11:57.023Z,6.77
2018-10-07T08:14:24.964Z,6.93
2018-10-07T08:16:53.113Z,6.80
2018-10-07T08:19:21.108Z,7.63
2018-10-07T08:21:49.099Z,8.20
2018-10-07T08:24:17.018Z,7.33
2018-10-07T08:26:45.181Z,6.43
2018-10-07T08:29:13.321Z,5.90
2018-10-07T08:31:41.464Z,5.87
2018-10-07T08:34:09.381Z,5.93
2018-10-07T08:36:37.535Z,6.13
2018-10-07T08:39:06.717Z,5.67
2018-10-07T08:41:34.648Z,5.63
2018-10-07T08:44:02.839Z,5.97
2018-10-07T08:46:30.743Z,5.87
2018-10-07T08:48:58.654Z,6.17
2018-10-07T08:51:26.793Z,6.47
2018-10-07T08:53:54.985Z,6.27
2018-10-07T08:56:23.185Z,5.23
2018-10-07T08:58:51.058Z,5.37
2018-10-07T09:01:19.249Z,5.87
2018-10-07T09:03:47.414Z,5.70
2018-10-07T09:06:15.566Z,5.63
2018-10-07T09:08:43.737Z,5.43
2018-10-07T09:11:11.939Z,5.60
2018-10-07T09:13:40.096Z,6.23
2018-10-07T09:16:08.255Z,5.43
2018-10-07T09:18:36.395Z,5.40
2018-10-07T09:21:04.583Z,5.37
2018-10-07T09:23:33.118Z,5.57
2018-10-07T09:26:01.317Z,5.73
2018-10-07T09:28:29.252Z,5.23
2018-10-07T09:30:57.402Z,5.40
2018-10-07T09:33:25.575Z,4.83
2018-10-07T09:35:53.495Z,4.47
2018-10-07T09:38:21.470Z,4.37
2018-10-07T09:40:49.476Z,4.40
2018-10-07T09:43:17.676Z,3.77
2018-10-07T09:45:45.869Z,4.37
2018-10-07T09:48:13.894Z,4.67
2018-10-07T09:50:42.180Z,5.00
2018-10-07T09:53:10.362Z,4.53
2018-10-07T09:55:38.519Z,4.60
2018-10-07T09:58:06.722Z,5.30
2018-10-07T10:00:40.533Z,4.60
2018-10-07T10:03:09.635Z,4.53
2018-10-07T10:05:37.788Z,4.83
2018-10-07T10:08:06.124Z,4.77
2018-10-07T10:10:34.283Z,4.80
2018-10-07T10:13:02.438Z,4.97
2018-10-07T10:15:30.590Z,5.37
2018-10-07T10:18:06.369Z,4.70
2018-10-07T10:20:47.798Z,5.03
2018-10-07T10:23:23.679Z,5.63
2018-10-07T10:26:26.549Z,5.03
2018-10-07T10:29:10.007Z,5.00
2018-10-07T10:31:42.339Z,5.07
2018-10-07T10:34:30.347Z,4.97
2018-10-07T10:37:02.933Z,4.90
2018-10-07T10:40:10.329Z,4.53
2018-10-07T10:42:42.871Z,4.80
2018-10-07T10:45:34.205Z,4.70
2018-10-07T10:48:09.003Z,4.77
2018-10-07T10:50:41.671Z,4.77
2018-10-07T10:53:15.962Z,4.47
2018-10-07T10:55:51.299Z,4.43
2018-10-07T10:58:29.095Z,4.40
2018-10-07T11:00:58.331Z,4.97
2018-10-07T11:03:38.981Z,5.00
2018-10-07T11:06:17.280Z,4.60
2018-10-07T11:09:11.563Z,4.97
2018-10-07T11:11:49.856Z,4.60
2018-10-07T11:14:32.272Z,4.20
2018-10-07T11:17:12.131Z,4.60
2018-10-07T11:20:02.711Z,5.27
2018-10-07T11:22:44.574Z,4.60
2018-10-07T11:27:25.857Z,4.40
2018-10-07T11:30:02.178Z,4.73
2018-10-07T11:34:46.899Z,4.37
2018-10-07T11:37:24.941Z,3.97
2018-10-07T11:41:17.190Z,4.20
2018-10-07T11:43:52.537Z,4.37
2018-10-07T11:47:02.655Z,4.23
2018-10-07T11:49:43.686Z,3.80
2018-10-07T11:52:24.841Z,4.70
2018-10-07T11:54:52.937Z,4.30
2018-10-07T11:57:21.089Z,4.40
2018-10-07T11:59:49.264Z,4.53
2018-10-07T12:02:17.483Z,4.50
2018-10-07T12:04:45.555Z,4.07
2018-10-07T12:07:13.487Z,3.90
2018-10-07T12:09:41.660Z,4.63
2018-10-07T12:12:09.817Z,4.20
2018-10-07T12:14:38.032Z,4.40
2018-10-07T12:17:06.272Z,4.60
2018-10-07T12:19:34.546Z,4.50
2018-10-07T12:22:02.496Z,4.73
2018-10-07T12:24:30.666Z,4.37
2018-10-07T12:26:58.899Z,3.97
2018-10-07T12:29:27.075Z,4.27
2018-10-07T12:31:55.339Z,4.17
2018-10-07T12:34:23.510Z,3.83
2018-10-07T12:36:51.756Z,3.90
2018-10-07T12:39:19.850Z,4.60
2018-10-07T12:41:48.312Z,4.47
2018-10-07T12:44:16.484Z,4.63
2018-10-07T12:46:44.663Z,4.40
2018-10-07T12:49:12.839Z,4.00
2018-10-07T12:51:41.114Z,4.00
2018-10-07T12:54:09.097Z,4.37
2018-10-07T12:56:37.289Z,4.70
2018-10-07T12:59:05.555Z,4.10
2018-10-07T13:01:33.720Z,4.30
2018-10-07T13:04:01.849Z,4.17
2018-10-07T13:06:30.084Z,3.90
2018-10-07T13:08:58.238Z,3.97
2018-10-07T13:11:26.155Z,3.87
2018-10-07T13:13:54.298Z,4.43
2018-10-07T13:16:22.554Z,4.00
2018-10-07T13:18:50.762Z,3.97
2018-10-07T13:21:18.914Z,4.10
2018-10-07T13:23:47.295Z,3.60
2018-10-07T13:26:15.241Z,4.23
2018-10-07T13:28:43.188Z,3.93
2018-10-07T13:31:11.160Z,4.40
2018-10-07T13:33:39.431Z,4.07
2018-10-07T13:36:07.598Z,4.70
2018-10-07T13:38:35.760Z,3.93
2018-10-07T13:41:03.983Z,3.70
2018-10-07T13:43:32.160Z,4.20
2018-10-07T13:46:00.382Z,4.10
2018-10-07T13:48:28.546Z,4.17
2018-10-07T13:50:56.701Z,4.03
2018-10-07T13:53:24.673Z,4.40
2018-10-07T13:55:52.769Z,4.07
2018-10-07T13:58:20.930Z,4.07
2018-10-07T14:00:49.087Z,3.67
2018-10-07T14:03:17.006Z,3.80
2018-10-07T14:05:45.159Z,4.00
2018-10-07T14:08:13.339Z,4.00
2018-10-07T14:10:41.511Z,4.20
2018-10-07T14:13:09.454Z,3.60
2018-10-07T14:15:37.627Z,4.40
2018-10-07T14:18:05.996Z,3.93
2018-10-07T14:20:34.141Z,3.43
2018-10-07T14:23:02.367Z,3.73
2018-10-07T14:25:30.544Z,3.83
2018-10-07T14:27:58.734Z,4.00
2018-10-07T14:30:26.642Z,4.00
2018-10-07T14:32:54.838Z,3.60
2018-10-07T14:35:22.983Z,3.90
2018-10-07T14:37:51.131Z,3.80
2018-10-07T14:40:19.277Z,4.07
2018-10-07T14:42:47.426Z,3.60
2018-10-07T14:45:15.615Z,4.00
2018-10-07T14:47:43.787Z,3.93
2018-10-07T14:50:11.938Z,4.00
2018-10-07T14:52:40.115Z,4.40
2018-10-07T14:55:08.349Z,4.47
2018-10-07T14:57:36.435Z,3.80
2018-10-07T15:00:04.678Z,4.20
2018-10-07T15:02:32.857Z,4.70
2018-10-07T15:05:01.042Z,4.30
2018-10-07T15:07:29.200Z,4.20
2018-10-07T15:09:57.175Z,4.50
2018-10-07T15:12:25.098Z,4.40
2018-10-07T15:14:53.013Z,4.83
2018-10-07T15:17:20.944Z,5.10
2018-10-07T15:19:48.894Z,5.27
2018-10-07T15:22:17.060Z,5.23
2018-10-07T15:24:44.988Z,4.93
2018-10-07T15:27:13.138Z,5.33
2018-10-07T15:29:41.365Z,5.40
2018-10-07T15:32:09.470Z,4.93
2018-10-07T15:34:37.638Z,4.77
2018-10-07T15:37:05.793Z,5.90
2018-10-07T15:39:33.710Z,5.20
2018-10-07T15:42:01.910Z,6.90
2018-10-07T15:44:30.076Z,5.60
2018-10-07T15:46:58.271Z,5.40
2018-10-07T15:49:26.435Z,6.00
2018-10-07T15:51:54.595Z,6.40
2018-10-07T15:54:22.793Z,6.07
2018-10-07T15:56:51.018Z,6.33
2018-10-07T15:59:19.103Z,6.40
2018-10-07T16:01:47.240Z,5.87
2018-10-07T16:04:15.418Z,6.30
2018-10-07T16:06:43.581Z,5.50
2018-10-07T16:09:11.739Z,6.30
2018-10-07T16:11:39.873Z,6.00
2018-10-07T16:14:08.069Z,6.57
2018-10-07T16:16:36.220Z,6.30
2018-10-07T16:19:04.469Z,6.77
2018-10-07T16:21:32.640Z,6.67
2018-10-07T16:24:00.790Z,6.47
2018-10-07T16:26:29.007Z,6.30
2018-10-07T16:28:57.179Z,6.87
2018-10-07T16:31:30.939Z,6.70
2018-10-07T16:33:59.138Z,7.25
2018-10-07T16:36:27.300Z,7.13
2018-10-07T16:38:55.530Z,7.63
2018-10-07T16:41:23.703Z,7.73
2018-10-07T16:43:51.875Z,8.43
2018-10-07T16:46:20.035Z,6.97
2018-10-07T16:48:48.182Z,7.17
2018-10-07T16:51:16.350Z,7.87
2018-10-07T16:53:44.537Z,7.50
2018-10-07T16:56:12.687Z,8.70
2018-10-07T16:58:40.890Z,9.43
2018-10-07T17:01:09.075Z,10.07
2018-10-07T17:03:37.228Z,10.63
2018-10-07T17:06:05.417Z,11.47
2018-10-07T17:08:33.575Z,11.37
2018-10-07T17:11:01.771Z,10.67
2018-10-07T17:13:30.811Z,10.90
2018-10-07T17:15:58.638Z,10.57
2018-10-07T17:18:26.795Z,10.77
2018-10-07T17:20:54.766Z,10.47
2018-10-07T17:23:22.656Z,10.67
2018-10-07T17:25:50.820Z,10.33
2018-10-07T17:28:18.984Z,10.87
2018-10-07T17:30:47.160Z,10.20
2018-10-07T17:33:15.331Z,10.13
2018-10-07T17:35:43.505Z,10.63
2018-10-07T17:38:11.694Z,11.13
2018-10-07T17:40:39.669Z,10.40
2018-10-07T17:43:07.597Z,10.60
2018-10-07T17:45:35.798Z,11.47
2018-10-07T17:48:04.029Z,10.10
2018-10-07T17:50:31.973Z,9.97
2018-10-07T17:53:00.210Z,11.07
2018-10-07T17:55:28.485Z,10.30
2018-10-07T17:57:56.454Z,11.00
2018-10-07T18:00:24.633Z,11.03
2018-10-07T18:02:52.649Z,11.43
2018-10-07T18:05:20.747Z,11.70
2018-10-07T18:07:48.925Z,11.03
2018-10-07T18:10:17.198Z,12.93
2018-10-07T18:12:45.395Z,12.63
2018-10-07T18:15:13.777Z,13.83
2018-10-07T18:17:42.096Z,14.30
2018-10-07T18:20:10.263Z,15.50
2018-10-07T18:22:38.473Z,16.73
2018-10-07T18:25:06.663Z,16.13
2018-10-07T18:27:34.845Z,16.73
2018-10-07T18:30:03.090Z,17.00
2018-10-07T18:32:31.287Z,17.67
2018-10-07T18:34:59.501Z,17.70
2018-10-07T18:37:27.678Z,18.23
2018-10-07T18:39:55.876Z,19.43
2018-10-07T18:42:24.035Z,20.00
2018-10-07T18:44:52.243Z,20.47
2018-10-07T18:47:20.417Z,20.47
2018-10-07T18:49:48.395Z,21.23
2018-10-07T18:52:16.576Z,21.60
2018-10-07T18:54:44.820Z,21.57
2018-10-07T18:57:12.913Z,20.33
2018-10-07T18:59:41.087Z,21.10
2018-10-07T19:02:09.263Z,21.33
2018-10-07T19:04:37.434Z,22.20
2018-10-07T19:07:05.624Z,22.30
2018-10-07T19:09:33.790Z,22.37
2018-10-07T19:12:01.966Z,23.57
2018-10-07T19:14:30.191Z,22.93
2018-10-07T19:16:58.364Z,24.30
2018-10-07T19:19:26.310Z,22.43
2018-10-07T19:21:54.475Z,22.47
2018-10-07T19:24:28.900Z,23.13
2018-10-07T19:26:57.107Z,22.33
2018-10-07T19:29:25.315Z,21.60
2018-10-07T19:31:53.494Z,22.77
2018-10-07T19:34:21.684Z,23.03
2018-10-07T19:36:49.649Z,22.77
2018-10-07T19:39:17.817Z,23.23
2018-10-07T19:41:46.016Z,22.93
2018-10-07T19:44:14.173Z,22.73
2018-10-07T19:46:42.114Z,22.03
2018-10-07T19:49:10.074Z,22.13
2018-10-07T19:51:38.968Z,21.97
2018-10-07T19:54:06.919Z,21.00
2018-10-07T19:56:35.111Z,21.57
2018-10-07T19:59:03.117Z,22.20
2018-10-07T20:01:31.291Z,21.40
2018-10-07T20:04:00.574Z,21.27
2018-10-07T20:06:28.765Z,20.97
2018-10-07T20:08:56.925Z,22.20
2018-10-07T20:11:25.106Z,21.53
2018-10-07T20:13:53.273Z,21.53
2018-10-07T20:16:21.205Z,21.23
2018-10-07T20:18:49.185Z,21.63
2018-10-07T20:21:17.123Z,21.80
2018-10-07T20:23:45.066Z,22.20
2018-10-07T20:26:13.008Z,21.00
2018-10-07T20:28:40.943Z,22.17
2018-10-07T20:31:09.172Z,22.43
2018-10-07T20:33:37.461Z,20.70
2018-10-07T20:36:05.389Z,20.90
2018-10-07T20:38:33.331Z,20.70
2018-10-07T20:41:01.565Z,20.60
2018-10-07T20:43:29.744Z,21.53
2018-10-07T20:45:57.915Z,21.53
2018-10-07T20:48:26.085Z,21.77
2018-10-07T20:50:54.283Z,22.00
2018-10-07T20:53:22.540Z,21.50
2018-10-07T20:55:50.771Z,21.53
2018-10-07T20:58:19.618Z,22.20
2018-10-07T21:00:47.793Z,21.30
2018-10-07T21:03:15.964Z,22.40
2018-10-07T21:05:44.160Z,22.30
2018-10-07T21:08:12.349Z,22.80
2018-10-07T21:10:40.531Z,22.00
2018-10-07T21:13:08.692Z,21.93
2018-10-07T21:15:36.615Z,22.27
2018-10-07T21:18:04.991Z,22.60
2018-10-07T21:20:32.990Z,21.53
2018-10-07T21:23:00.925Z,22.30
2018-10-07T21:25:29.682Z,23.67
2018-10-07T21:27:57.857Z,23.27
2018-10-07T21:30:26.019Z,24.10
2018-10-07T21:32:54.171Z,22.97
2018-10-07T21:35:22.338Z,23.93
2018-10-07T21:37:50.307Z,24.63
2018-10-07T21:40:18.450Z,23.67
2018-10-07T21:42:46.612Z,24.07
2018-10-07T21:45:14.753Z,24.10
2018-10-07T21:47:42.675Z,24.03
2018-10-07T21:50:10.844Z,25.30
2018-10-07T21:52:39.004Z,23.77
2018-10-07T21:55:07.207Z,24.43
2018-10-07T21:57:35.294Z,24.57
2018-10-07T22:00:03.266Z,25.13
2018-10-07T22:02:31.445Z,24.53
2018-10-07T22:04:59.634Z,25.33
2018-10-07T22:07:27.810Z,25.63
2018-10-07T22:09:55.970Z,25.70
2018-10-07T22:12:24.158Z,24.47
2018-10-07T22:14:52.327Z,24.97
2018-10-07T22:17:20.513Z,24.47
2018-10-07T22:19:48.721Z,25.70
2018-10-07T22:22:16.848Z,24.37
2018-10-07T22:24:45.001Z,24.70
2018-10-07T22:27:13.247Z,25.77
2018-10-07T22:29:41.411Z,24.57
2018-10-07T22:32:09.579Z,25.63
2018-10-07T22:34:37.731Z,26.07
2018-10-07T22:37:05.905Z,25.57
2018-10-07T22:39:34.067Z,26.87
2018-10-07T22:42:02.216Z,25.30
2018-10-07T22:44:30.415Z,24.60
2018-10-07T22:46:58.604Z,25.13
2018-10-07T22:49:26.541Z,27.10
2018-10-07T22:51:54.674Z,26.50
2018-10-07T22:54:22.841Z,26.80
2018-10-07T22:56:51.003Z,27.47
2018-10-07T22:59:19.182Z,27.03
2018-10-07T23:01:47.383Z,30.07
2018-10-07T23:04:15.677Z,30.90
2018-10-07T23:06:43.835Z,31.37
2018-10-07T23:09:12.996Z,29.67
2018-10-07T23:11:41.523Z,27.80
2018-10-07T23:14:09.521Z,28.40
2018-10-07T23:16:37.688Z,30.17
2018-10-07T23:19:05.826Z,27.43
2018-10-07T23:21:33.978Z,27.63
2018-10-07T23:24:02.130Z,27.03
2018-10-07T23:26:30.324Z,25.63
2018-10-07T23:28:58.499Z,29.47
2018-10-07T23:31:26.659Z,32.30
2018-10-07T23:33:54.862Z,30.63
2018-10-07T23:36:23.098Z,31.13
2018-10-07T23:38:51.262Z,31.60
2018-10-07T23:41:19.426Z,31.00
2018-10-07T23:43:47.616Z,33.80
2018-10-07T23:46:15.786Z,32.00
2018-10-07T23:48:43.925Z,31.27
2018-10-07T23:51:12.087Z,31.07
2018-10-07T23:53:40.240Z,30.63
2018-10-07T23:56:08.391Z,30.27
2018-10-07T23:58:36.559Z,29.23
